< < Back
Terminal Aerodrome Forecast


Current Version              Previous Versions:   1  2  3  4  5  6  7  8  9  

Terminal Aerodrome Forecast

570
FTUS42 KFFC 161700
TAFFTY
TAF
KFTY 161735Z 1618/1718 08008G16KT P6SM SKC
     FM170000 07006KT P6SM SKC
     FM171200 08011KT P6SM SCT250
     FM171600 10010G20KT P6SM BKN035 BKN250=



Latest METAR

756
SAUS70 KWBC 170400 RRH
MTRFTY
METAR KFTY 170353Z 09006KT 10SM CLR 11/M02 A3030 RMK AO2 SLP262
T01111017


USA.gov is the U.S. government's official web portal to all federal, state and local government web resources and services.